Time;durP1;ratioP1;P1;durP2;ratioP2;P2;SDS_P1;SDS_P2;PMS_P1;PMS_P2;Temp;Humidity;BMP_temperature;BMP_pressure;BME280_temperature;BME280_humidity;BME280_pressure;Samples;Min_cycle;Max_cycle;Signal;HPM_P1;HPM_P2
2022/09/03 00:03:22;;;;;;;;;;;;;;;;;;21082355;28;19928;-61
2022/09/03 00:13:24;;;;;;;;;;;;;;;;;;21082746;28;19924;-62
2022/09/03 00:23:27;;;;;;;;;;;;;;;;;;21097580;28;20296;-62
2022/09/03 00:33:29;;;;;;;;;;;;;;;;;;21080803;28;19969;-61
2022/09/03 00:43:31;;;;;;;;;;;;;;;;;;21080160;28;20057;-61
2022/09/03 00:53:33;;;;;;;;;;;;;;;;;;21080378;28;20349;-61
2022/09/03 01:03:35;;;;;;;;;;;;;;;;;;21079618;28;19931;-62
2022/09/03 01:13:37;;;;;;;;;;;;;;;;;;21089467;28;19931;-61
2022/09/03 01:23:39;;;;;;;;;;;;;;;;;;21096354;28;20376;-61
2022/09/03 01:33:43;;;;;;;;;;;;;;;;;;21095533;28;20241;-62
2022/09/03 01:43:46;;;;;;;;;;;;;;;;;;21094664;28;19924;-61
2022/09/03 01:53:50;;;;;;;;;;;;;;;;;;21094266;28;19924;-62
2022/09/03 02:03:54;;;;;;;;;;;;;;;;;;21093506;28;19968;-62
2022/09/03 02:13:56;;;;;;;;;;;;;;;;;;21092494;28;19925;-61
2022/09/03 02:23:59;;;;;;;;;;;;;;;;;;21090494;28;19979;-62
2022/09/03 02:34:00;;;;;;;;;;;;;;;;;;21092016;28;19979;-63
2022/09/03 02:44:03;;;;;;;;;;;;;;;;;;21089640;28;19924;-59
2022/09/03 02:54:05;;;;;;;;;;;;;;;;;;21089007;28;19928;-59
2022/09/03 03:04:06;;;;;;;;;;;;;;;;;;21088303;28;19928;-60
2022/09/03 03:14:09;;;;;;;;;;;;;;;;;;21087520;28;19924;-61
2022/09/03 03:24:12;;;;;;;;;;;;;;;;;;21086999;28;20376;-62
2022/09/03 03:34:14;;;;;;;;;;;;;;;;;;21084689;28;19931;-61
2022/09/03 03:44:18;;;;;;;;;;;;;;;;;;21084668;28;19931;-61
2022/09/03 03:54:21;;;;;;;;;;;;;;;;;;21084035;28;19924;-61
2022/09/03 04:04:23;;;;;;;;;;;;;;;;;;21083522;28;19978;-62
2022/09/03 04:14:26;;;;;;;;;;;;;;;;;;21082537;28;20337;-61
2022/09/03 04:24:28;;;;;;;;;;;;;;;;;;21082271;28;19928;-61
2022/09/03 04:34:30;;;;;;;;;;;;;;;;;;21081179;28;19977;-60
2022/09/03 04:44:36;;;;;;;;;;;;;;;;;;21080519;28;20368;-61
2022/09/03 04:54:39;;;;;;;;;;;;;;;;;;21080713;28;20013;-60
2022/09/03 05:04:41;;;;;;;;;;;;;;;;;;21080666;28;19985;-62
2022/09/03 05:14:43;;;;;;;;;;;;;;;;;;21079605;28;19924;-61
2022/09/03 05:24:45;;;;;;;;;;;;;;;;;;21079530;28;19924;-62
2022/09/03 05:34:46;;;;;;;;;;;;;;;;;;21078640;28;19938;-62
2022/09/03 05:44:48;;;;;;;;;;;;;;;;;;21081080;28;19924;-61
2022/09/03 05:54:50;;;;;;;;;;;;;;;;;;21078233;28;19924;-62
2022/09/03 06:04:53;;;;;;;;;;;;;;;;;;21092811;28;19925;-61
2022/09/03 06:14:55;;;;;;;;;;;;;;;;;;21091921;28;19924;-60
2022/09/03 06:24:57;;;;;;;;;;;;;;;;;;21091475;28;19924;-62
2022/09/03 06:34:58;;;;;;;;;;;;;;;;;;21105675;28;19924;-61
2022/09/03 06:45:01;;;;;;;;;;;;;;;;;;21090702;28;20322;-63
2022/09/03 06:55:03;;;;;;;;;;;;;;;;;;21088484;28;19931;-60
2022/09/03 07:05:05;;;;;;;;;;;;;;;;;;21087273;28;19928;-61
2022/09/03 07:15:07;;;;;;;;;;;;;;;;;;21086418;28;19932;-62
2022/09/03 07:25:09;;;;;;;;;;;;;;;;;;21086520;28;19931;-61
2022/09/03 07:35:11;;;;;;;;;;;;;;;;;;21085623;28;19924;-62
2022/09/03 07:45:13;;;;;;;;;;;;;;;;;;21085413;28;19977;-61
2022/09/03 07:55:15;;;;;;;;;;;;;;;;;;21084519;28;19981;-62
2022/09/03 08:05:19;;;;;;;;;;;;;;;;;;21083309;28;19924;-62
2022/09/03 08:15:21;;;;;;;;;;;;;;;;;;21082263;28;19936;-61
2022/09/03 08:25:23;;;;;;;;;;;;;;;;;;21080772;28;19972;-61
2022/09/03 08:35:25;;;;;;;;;;;;;;;;;;21080701;28;19924;-61
2022/09/03 08:45:29;;;;;;;;;;;;;;;;;;21081832;28;19924;-62
2022/09/03 08:55:33;;;;;;;;;;;;;;;;;;21079220;28;21318;-60
2022/09/03 09:05:36;;;;;;;;;;;;;;;;;;21079775;28;20010;-61
2022/09/03 09:15:37;;;;;;;;;;;;;;;;;;21079230;28;19924;-62
2022/09/03 09:25:41;;;;;;;;;;;;;;;;;;21079466;28;19939;-61
2022/09/03 09:35:43;;;;;;;;;;;;;;;;;;21089225;28;20015;-62
2022/09/03 09:45:45;;;;;;;;;;;;;;;;;;21094833;28;20386;-61
2022/09/03 09:55:48;;;;;;;;;;;;;;;;;;21093815;28;20341;-62
2022/09/03 10:05:52;;;;;;;;;;;;;;;;;;21092290;28;19936;-62
2022/09/03 10:15:54;;;;;;;;;;;;;;;;;;21092097;28;20367;-60
2022/09/03 10:25:59;;;;;;;;;;;;;;;;;;21106996;28;19924;-63
2022/09/03 10:36:01;;;;;;;;;;;;;;;;;;21090359;28;20380;-62
2022/09/03 10:46:05;;;;;;;;;;;;;;;;;;21089436;28;19998;-61
2022/09/03 10:56:07;;;;;;;;;;;;;;;;;;21088601;28;20429;-61
2022/09/03 11:06:09;;;;;;;;;;;;;;;;;;21087804;28;20021;-63
2022/09/03 11:16:11;;;;;;;;;;;;;;;;;;21086855;28;19977;-61
2022/09/03 11:26:13;;;;;;;;;;;;;;;;;;21087666;28;19924;-61
2022/09/03 11:36:15;;;;;;;;;;;;;;;;;;21086126;28;19963;-61
2022/09/03 11:46:17;;;;;;;;;;;;;;;;;;21086385;28;20403;-62
2022/09/03 11:56:18;;;;;;;;;;;;;;;;;;21081971;28;19924;-61
2022/09/03 12:06:20;;;;;;;;;;;;;;;;;;21081596;28;19924;-61
2022/09/03 12:16:22;;;;;;;;;;;;;;;;;;21082461;28;20407;-62
2022/09/03 12:26:25;;;;;;;;;;;;;;;;;;21080855;28;19924;-62
2022/09/03 12:36:26;;;;;;;;;;;;;;;;;;21080880;28;19925;-61
2022/09/03 12:46:28;;;;;;;;;;;;;;;;;;21080089;28;19924;-61
2022/09/03 12:56:33;;;;;;;;;;;;;;;;;;21079503;28;19924;-61
2022/09/03 13:06:35;;;;;;;;;;;;;;;;;;21084291;28;19930;-62
2022/09/03 13:16:37;;;;;;;;;;;;;;;;;;21096705;28;20372;-61
2022/09/03 13:26:40;;;;;;;;;;;;;;;;;;21095311;28;19924;-61
2022/09/03 13:36:42;;;;;;;;;;;;;;;;;;21095119;28;19979;-62
2022/09/03 13:46:44;;;;;;;;;;;;;;;;;;21095041;28;20366;-62
2022/09/03 13:56:46;;;;;;;;;;;;;;;;;;21094219;28;20386;-61
2022/09/03 14:06:49;;;;;;;;;;;;;;;;;;21092606;28;19924;-62
2022/09/03 14:16:53;;;;;;;;;;;;;;;;;;21090304;28;19924;-61
2022/09/03 14:26:55;;;;;;;;;;;;;;;;;;21091564;28;19930;-61
2022/09/03 14:36:57;;;;;;;;;;;;;;;;;;21091489;28;19954;-61
2022/09/03 14:46:59;;;;;;;;;;;;;;;;;;21089389;28;19932;-62
2022/09/03 14:57:01;;;;;;;;;;;;;;;;;;21089239;28;19982;-62
2022/09/03 15:07:03;;;;;;;;;;;;;;;;;;21087936;28;19939;-60
2022/09/03 15:17:04;;;;;;;;;;;;;;;;;;21087386;28;19975;-60
2022/09/03 15:27:06;;;;;;;;;;;;;;;;;;21084746;28;19963;-62
2022/09/03 15:37:08;;;;;;;;;;;;;;;;;;21084362;28;20372;-61
2022/09/03 15:47:10;;;;;;;;;;;;;;;;;;21085062;28;20303;-61
2022/09/03 15:57:12;;;;;;;;;;;;;;;;;;21099147;28;20468;-61
2022/09/03 16:07:14;;;;;;;;;;;;;;;;;;21083921;28;20020;-62
2022/09/03 16:17:16;;;;;;;;;;;;;;;;;;21082066;28;19931;-62
2022/09/03 16:27:18;;;;;;;;;;;;;;;;;;21081160;28;19931;-62
2022/09/03 16:37:20;;;;;;;;;;;;;;;;;;21080726;28;19932;-61
2022/09/03 16:47:22;;;;;;;;;;;;;;;;;;21079765;28;19985;-62
2022/09/03 16:57:24;;;;;;;;;;;;;;;;;;21079759;28;19924;-61
2022/09/03 17:07:26;;;;;;;;;;;;;;;;;;21079980;28;19924;-62
2022/09/03 17:17:28;;;;;;;;;;;;;;;;;;21079278;28;19969;-60
2022/09/03 17:27:30;;;;;;;;;;;;;;;;;;21079662;28;19959;-61
2022/09/03 17:37:33;;;;;;;;;;;;;;;;;;21078752;28;19978;-61
2022/09/03 17:47:34;;;;;;;;;;;;;;;;;;21077935;28;19924;-62
2022/09/03 17:57:36;;;;;;;;;;;;;;;;;;21106080;28;20024;-63
2022/09/03 18:07:38;;;;;;;;;;;;;;;;;;21095201;28;19928;-62
2022/09/03 18:17:40;;;;;;;;;;;;;;;;;;21092073;28;19924;-60
2022/09/03 20:11:07;;;;;;;;;;;;;;;;;;21082968;28;20396;-61
2022/09/03 20:21:09;;;;;;;;;;;;;;;;;;21081438;28;19925;-62
2022/09/03 20:31:10;;;;;;;;;;;;;;;;;;21082181;28;19932;-59
2022/09/03 20:41:12;;;;;;;;;;;;;;;;;;21080588;28;20277;-61
2022/09/03 20:51:14;;;;;;;;;;;;;;;;;;21081738;28;19977;-60
2022/09/03 21:01:17;;;;;;;;;;;;;;;;;;21082722;28;20376;-64
2022/09/03 21:11:19;;;;;;;;;;;;;;;;;;21081503;28;19967;-62
2022/09/03 21:21:24;;;;;;;;;;;;;;;;;;21079489;28;19924;-62
2022/09/03 21:31:26;;;;;;;;;;;;;;;;;;21089840;28;20015;-61
2022/09/03 21:41:28;;;;;;;;;;;;;;;;;;21094909;28;19924;-62
2022/09/03 21:51:30;;;;;;;;;;;;;;;;;;21094919;28;20015;-62
2022/09/03 22:01:32;;;;;;;;;;;;;;;;;;21093475;28;19924;-62
2022/09/03 22:11:35;;;;;;;;;;;;;;;;;;21092958;28;20264;-61
2022/09/03 22:21:37;;;;;;;;;;;;;;;;;;21091700;28;19931;-62
2022/09/03 22:31:39;;;;;;;;;;;;;;;;;;21091276;28;19924;-62
2022/09/03 22:41:40;;;;;;;;;;;;;;;;;;21089356;28;19924;-62
2022/09/03 22:51:42;;;;;;;;;;;;;;;;;;21089284;28;19924;-61
2022/09/03 23:01:45;;;;;;;;;;;;;;;;;;21088859;28;20300;-60
2022/09/03 23:11:46;;;;;;;;;;;;;;;;;;21088027;28;20042;-62
2022/09/03 23:21:48;;;;;;;;;;;;;;;;;;21088055;28;19924;-62
2022/09/03 23:31:51;;;;;;;;;;;;;;;;;;21088101;28;19924;-61
2022/09/03 23:41:53;;;;;;;;;;;;;;;;;;21087103;28;19928;-61
2022/09/03 23:51:58;;;;;;;;;;;;;;;;;;21085983;28;19969;-62
